createdAt,value
2018-08-03T00:01:37.967Z,5.95
2018-08-03T00:04:06.039Z,7.75
2018-08-03T00:06:34.113Z,8.95
2018-08-03T00:09:02.580Z,6.35
2018-08-03T00:11:30.666Z,7.92
2018-08-03T00:13:58.754Z,6.80
2018-08-03T00:16:26.815Z,6.95
2018-08-03T00:18:54.907Z,12.05
2018-08-03T00:21:22.863Z,6.35
2018-08-03T00:23:50.938Z,7.87
2018-08-03T00:26:18.806Z,5.97
2018-08-03T00:28:46.882Z,5.90
2018-08-03T00:31:15.019Z,7.00
2018-08-03T00:33:43.058Z,8.05
2018-08-03T00:36:11.129Z,8.00
2018-08-03T00:38:39.236Z,9.55
2018-08-03T00:41:07.330Z,6.17
2018-08-03T00:43:35.417Z,6.67
2018-08-03T00:46:03.761Z,6.10
2018-08-03T00:48:31.845Z,6.45
2018-08-03T00:51:00.027Z,6.30
2018-08-03T00:53:28.088Z,9.80
2018-08-03T00:55:56.261Z,11.43
2018-08-03T00:58:24.741Z,6.65
2018-08-03T01:00:52.820Z,7.95
2018-08-03T01:03:21.016Z,5.83
2018-08-03T01:05:49.099Z,10.38
2018-08-03T01:08:17.246Z,9.85
2018-08-03T01:10:45.347Z,6.85
2018-08-03T01:13:13.414Z,8.85
2018-08-03T01:15:41.527Z,8.30
2018-08-03T01:18:09.615Z,7.62
2018-08-03T01:20:37.781Z,9.43
2018-08-03T01:23:05.874Z,7.47
2018-08-03T01:25:33.945Z,8.60
2018-08-03T01:28:02.050Z,7.75
2018-08-03T01:30:30.165Z,7.72
2018-08-03T01:32:58.243Z,9.15
2018-08-03T01:35:26.651Z,7.67
2018-08-03T01:37:54.819Z,8.03
2018-08-03T01:40:22.794Z,8.65
2018-08-03T01:42:50.890Z,8.23
2018-08-03T01:45:18.738Z,8.55
2018-08-03T01:47:47.091Z,10.18
2018-08-03T01:50:15.178Z,11.67
2018-08-03T01:52:43.250Z,9.75
2018-08-03T01:55:11.362Z,8.63
2018-08-03T01:57:39.450Z,10.33
2018-08-03T02:00:07.784Z,8.63
2018-08-03T02:02:35.670Z,8.63
2018-08-03T02:05:03.742Z,9.10
2018-08-03T02:07:31.866Z,8.78
2018-08-03T02:09:59.940Z,11.83
2018-08-03T02:12:28.023Z,9.90
2018-08-03T02:14:56.090Z,9.50
2018-08-03T02:17:24.158Z,9.03
2018-08-03T02:19:52.251Z,9.77
2018-08-03T02:22:20.374Z,13.33
2018-08-03T02:24:48.490Z,9.63
2018-08-03T02:27:16.666Z,13.80
2018-08-03T02:29:44.820Z,8.63
2018-08-03T02:32:12.910Z,8.33
2018-08-03T02:34:40.982Z,7.87
2018-08-03T02:37:09.141Z,9.13
2018-08-03T02:39:37.232Z,8.77
2018-08-03T02:42:05.374Z,10.10
2018-08-03T02:44:33.460Z,9.67
2018-08-03T02:47:01.547Z,9.00
2018-08-03T02:49:29.623Z,8.43
2018-08-03T02:51:57.698Z,11.43
2018-08-03T02:54:25.782Z,9.60
2018-08-03T02:56:53.852Z,9.87
2018-08-03T02:59:22.200Z,9.67
2018-08-03T03:01:50.298Z,10.65
2018-08-03T03:04:18.390Z,9.27
2018-08-03T03:06:46.505Z,9.03
2018-08-03T03:09:14.571Z,13.57
2018-08-03T03:11:42.971Z,8.83
2018-08-03T03:14:11.069Z,8.43
2018-08-03T03:16:39.149Z,8.60
2018-08-03T03:19:07.225Z,10.77
2018-08-03T03:21:35.340Z,8.90
2018-08-03T03:24:03.450Z,10.87
2018-08-03T03:26:31.533Z,11.97
2018-08-03T03:28:59.646Z,9.97
2018-08-03T03:31:27.729Z,10.77
2018-08-03T03:33:55.831Z,8.27
2018-08-03T03:36:23.902Z,12.53
2018-08-03T03:38:51.978Z,9.27
2018-08-03T03:41:20.094Z,9.80
2018-08-03T03:43:48.160Z,11.20
2018-08-03T03:46:16.255Z,12.77
2018-08-03T03:48:44.646Z,9.40
2018-08-03T03:51:12.714Z,9.43
2018-08-03T03:53:40.630Z,9.27
2018-08-03T03:56:08.722Z,9.33
2018-08-03T03:58:36.767Z,10.30
2018-08-03T04:01:04.884Z,13.20
2018-08-03T04:03:33.104Z,9.23
2018-08-03T04:06:01.155Z,9.85
2018-08-03T04:08:29.254Z,9.37
2018-08-03T04:10:57.366Z,9.18
2018-08-03T04:13:25.434Z,9.07
2018-08-03T04:15:53.534Z,8.67
2018-08-03T04:18:22.380Z,9.27
2018-08-03T04:20:51.882Z,8.93
2018-08-03T04:23:20.498Z,11.47
2018-08-03T04:25:48.598Z,8.30
2018-08-03T04:28:16.694Z,8.47
2018-08-03T04:30:44.760Z,8.93
2018-08-03T04:33:13.570Z,8.63
2018-08-03T04:35:41.719Z,9.50
2018-08-03T04:38:10.136Z,12.37
2018-08-03T04:40:38.302Z,12.23
2018-08-03T04:43:06.420Z,12.28
2018-08-03T04:45:34.516Z,13.57
2018-08-03T04:48:02.597Z,10.83
2018-08-03T04:50:30.977Z,11.63
2018-08-03T04:52:59.054Z,11.43
2018-08-03T04:55:27.190Z,10.90
2018-08-03T04:57:55.292Z,14.40
2018-08-03T05:00:23.675Z,9.97
2018-08-03T05:02:51.773Z,12.73
2018-08-03T05:05:19.869Z,14.07
2018-08-03T05:07:47.962Z,13.30
2018-08-03T05:10:16.044Z,11.53
2018-08-03T05:12:44.450Z,11.97
2018-08-03T05:15:12.558Z,11.90
2018-08-03T05:17:40.634Z,12.50
2018-08-03T05:20:08.890Z,12.87
2018-08-03T05:22:37.025Z,13.25
2018-08-03T05:25:05.694Z,13.00
2018-08-03T05:27:33.798Z,11.87
2018-08-03T05:30:02.116Z,13.17
2018-08-03T05:32:30.225Z,16.60
2018-08-03T05:34:58.374Z,12.67
2018-08-03T05:37:26.718Z,12.17
2018-08-03T05:39:54.815Z,12.20
2018-08-03T05:42:23.072Z,13.20
2018-08-03T05:44:50.949Z,15.00
2018-08-03T05:47:19.078Z,13.70
2018-08-03T05:49:47.486Z,14.80
2018-08-03T05:52:15.605Z,14.40
2018-08-03T05:54:43.691Z,20.73
2018-08-03T05:57:11.782Z,24.47
2018-08-03T05:59:39.866Z,24.05
2018-08-03T06:02:08.342Z,21.20
2018-08-03T06:04:36.426Z,23.40
2018-08-03T06:07:04.519Z,26.93
2018-08-03T06:09:32.647Z,22.22
2018-08-03T06:12:00.765Z,19.07
2018-08-03T06:14:29.143Z,19.10
2018-08-03T06:16:57.254Z,19.02
2018-08-03T06:19:25.352Z,19.07
2018-08-03T06:21:53.455Z,15.78
2018-08-03T06:24:21.541Z,16.40
2018-08-03T06:26:49.890Z,14.87
2018-08-03T06:29:17.987Z,18.45
2018-08-03T06:31:46.167Z,15.48
2018-08-03T06:34:14.246Z,17.70
2018-08-03T06:36:42.366Z,15.85
2018-08-03T06:39:10.891Z,15.23
2018-08-03T06:41:38.994Z,15.63
2018-08-03T06:44:07.132Z,20.25
2018-08-03T06:46:35.223Z,19.65
2018-08-03T06:49:03.310Z,18.85
2018-08-03T06:51:31.744Z,16.05
2018-08-03T06:53:59.839Z,15.60
2018-08-03T06:56:28.100Z,18.90
2018-08-03T06:58:56.214Z,16.45
2018-08-03T07:01:24.286Z,17.37
2018-08-03T07:03:52.723Z,17.05
2018-08-03T07:06:20.945Z,18.95
2018-08-03T07:08:49.047Z,15.03
2018-08-03T07:11:17.190Z,14.35
2018-08-03T07:13:45.286Z,18.25
2018-08-03T07:16:17.578Z,14.30
2018-08-03T07:18:45.687Z,16.02
2018-08-03T07:21:13.942Z,14.65
2018-08-03T07:23:42.210Z,13.72
2018-08-03T07:26:10.292Z,14.10
2018-08-03T07:28:38.558Z,15.30
2018-08-03T07:31:06.638Z,11.95
2018-08-03T07:33:34.723Z,10.53
2018-08-03T07:36:02.794Z,13.45
2018-08-03T07:38:30.850Z,9.50
2018-08-03T07:40:58.949Z,10.15
2018-08-03T07:43:27.092Z,11.40
2018-08-03T07:45:55.160Z,12.37
2018-08-03T07:48:23.238Z,10.15
2018-08-03T07:50:51.314Z,8.68
2018-08-03T07:53:19.722Z,10.60
2018-08-03T07:55:47.819Z,12.18
2018-08-03T07:58:15.914Z,11.05
2018-08-03T08:00:44.119Z,10.50
2018-08-03T08:03:12.397Z,7.80
2018-08-03T08:05:40.459Z,7.53
2018-08-03T08:08:08.524Z,6.35
2018-08-03T08:10:36.896Z,8.38
2018-08-03T08:13:05.128Z,7.25
2018-08-03T08:15:33.340Z,11.08
2018-08-03T08:18:01.567Z,8.85
2018-08-03T08:20:29.787Z,8.75
2018-08-03T08:22:57.840Z,8.08
2018-08-03T08:25:25.906Z,9.80
2018-08-03T08:27:53.991Z,12.70
2018-08-03T08:30:22.143Z,7.35
2018-08-03T08:32:50.286Z,7.62
2018-08-03T08:35:18.604Z,9.28
2018-08-03T08:37:46.693Z,8.48
2018-08-03T08:40:15.104Z,9.08
2018-08-03T08:42:43.182Z,10.10
2018-08-03T08:45:11.268Z,9.78
2018-08-03T08:47:39.731Z,9.75
2018-08-03T08:50:08.523Z,9.20
2018-08-03T08:52:36.623Z,10.08
2018-08-03T08:55:04.976Z,6.85
2018-08-03T08:57:33.354Z,9.08
2018-08-03T09:00:01.655Z,9.60
2018-08-03T09:02:29.758Z,10.88
2018-08-03T09:04:58.085Z,9.30
2018-08-03T09:07:26.222Z,10.03
2018-08-03T09:09:54.288Z,7.58
2018-08-03T09:12:22.419Z,8.65
2018-08-03T09:14:50.267Z,11.88
2018-08-03T09:17:18.414Z,9.53
2018-08-03T09:19:46.612Z,10.93
2018-08-03T09:22:14.717Z,8.53
2018-08-03T09:24:42.796Z,5.62
2018-08-03T09:27:10.761Z,11.20
2018-08-03T09:29:38.718Z,5.12
2018-08-03T09:32:06.845Z,9.73
2018-08-03T09:34:34.942Z,6.85
2018-08-03T09:37:03.011Z,5.60
2018-08-03T09:39:31.107Z,13.50
2018-08-03T09:41:59.218Z,8.33
2018-08-03T09:44:27.110Z,10.30
2018-08-03T09:46:55.303Z,7.60
2018-08-03T09:49:23.374Z,7.83
2018-08-03T09:51:51.448Z,6.53
2018-08-03T09:54:19.540Z,5.40
2018-08-03T09:56:47.418Z,7.40
2018-08-03T09:59:15.509Z,7.30
2018-08-03T10:01:43.670Z,8.50
2018-08-03T10:04:11.746Z,7.75
2018-08-03T10:06:39.818Z,6.97
2018-08-03T10:09:08.482Z,7.45
2018-08-03T10:11:36.418Z,5.22
2018-08-03T10:14:04.550Z,7.22
2018-08-03T10:16:32.634Z,5.28
2018-08-03T10:19:00.838Z,6.95
2018-08-03T10:21:28.910Z,6.05
2018-08-03T10:23:57.016Z,7.87
2018-08-03T10:26:25.082Z,5.53
2018-08-03T10:28:53.558Z,6.47
2018-08-03T10:31:21.688Z,6.30
2018-08-03T10:33:49.947Z,5.00
2018-08-03T10:36:18.019Z,5.15
2018-08-03T10:38:46.218Z,7.28
2018-08-03T10:41:14.390Z,4.90
2018-08-03T10:43:42.504Z,7.65
2018-08-03T10:46:10.866Z,5.53
2018-08-03T10:48:38.986Z,8.13
2018-08-03T10:51:07.405Z,6.42
2018-08-03T10:53:35.530Z,10.85
2018-08-03T10:56:03.650Z,5.58
2018-08-03T10:58:31.748Z,5.55
2018-08-03T11:00:59.844Z,9.40
2018-08-03T11:03:28.275Z,6.08
2018-08-03T11:05:56.374Z,5.22
2018-08-03T11:08:24.514Z,6.78
2018-08-03T11:10:52.590Z,7.12
2018-08-03T11:13:20.662Z,4.87
2018-08-03T11:15:49.147Z,7.12
2018-08-03T11:18:17.226Z,6.80
2018-08-03T11:20:45.299Z,5.03
2018-08-03T11:23:13.370Z,5.17
2018-08-03T11:25:41.446Z,7.50
2018-08-03T11:28:09.771Z,6.60
2018-08-03T11:30:37.637Z,5.33
2018-08-03T11:33:05.535Z,6.12
2018-08-03T11:35:33.638Z,5.20
2018-08-03T11:38:01.697Z,4.47
2018-08-03T11:40:30.059Z,5.15
2018-08-03T11:42:58.142Z,6.03
2018-08-03T11:45:26.217Z,3.27
2018-08-03T11:47:54.376Z,6.08
2018-08-03T11:50:22.466Z,4.22
2018-08-03T11:52:50.942Z,5.25
2018-08-03T11:55:19.010Z,4.80
2018-08-03T11:57:47.102Z,4.33
2018-08-03T12:00:15.177Z,4.35
2018-08-03T12:02:43.298Z,6.03
2018-08-03T12:05:11.659Z,4.12
2018-08-03T12:07:39.746Z,8.30
2018-08-03T12:10:07.822Z,4.75
2018-08-03T12:12:35.981Z,4.45
2018-08-03T12:15:04.020Z,2.92
2018-08-03T12:17:32.372Z,6.67
2018-08-03T12:20:00.506Z,5.42
2018-08-03T12:22:28.603Z,3.35
2018-08-03T12:24:56.785Z,9.50
2018-08-03T12:27:24.839Z,7.00
2018-08-03T12:29:53.351Z,6.10
2018-08-03T12:32:21.458Z,5.70
2018-08-03T12:34:49.506Z,6.03
2018-08-03T12:37:17.795Z,10.15
2018-08-03T12:39:45.854Z,8.63
2018-08-03T12:42:14.217Z,3.75
2018-08-03T12:44:42.318Z,8.30
2018-08-03T12:47:11.434Z,4.40
2018-08-03T12:49:39.495Z,4.80
2018-08-03T12:52:07.734Z,3.98
2018-08-03T12:54:35.807Z,4.73
2018-08-03T12:57:03.864Z,6.65
2018-08-03T12:59:31.986Z,6.22
2018-08-03T13:02:00.007Z,4.50
2018-08-03T13:04:28.118Z,5.35
2018-08-03T13:06:56.475Z,6.92
2018-08-03T13:09:24.576Z,4.08
2018-08-03T13:11:52.649Z,4.83
2018-08-03T13:14:20.732Z,6.92
2018-08-03T13:16:48.831Z,9.10
2018-08-03T13:19:17.241Z,5.58
2018-08-03T13:21:45.325Z,3.83
2018-08-03T13:24:13.551Z,6.20
2018-08-03T13:26:41.650Z,3.90
2018-08-03T13:29:09.706Z,7.12
2018-08-03T13:31:37.778Z,9.83
2018-08-03T13:34:06.003Z,6.78
2018-08-03T13:36:34.376Z,3.67
2018-08-03T13:39:02.576Z,5.60
2018-08-03T13:41:30.571Z,5.22
2018-08-03T13:43:58.652Z,4.20
2018-08-03T13:46:26.713Z,7.53
2018-08-03T13:48:54.592Z,7.15
2018-08-03T13:51:22.658Z,6.30
2018-08-03T13:53:50.953Z,5.27
2018-08-03T13:56:19.178Z,4.10
2018-08-03T13:58:47.612Z,10.25
2018-08-03T14:01:26.967Z,5.35
2018-08-03T14:03:55.052Z,7.90
2018-08-03T14:06:23.581Z,5.08
2018-08-03T14:08:51.707Z,5.97
2018-08-03T14:11:20.178Z,3.30
2018-08-03T14:13:48.503Z,3.65
2018-08-03T14:16:16.638Z,7.03
2018-08-03T14:18:46.376Z,7.30
2018-08-03T14:21:14.233Z,5.50
2018-08-03T14:23:42.480Z,6.75
2018-08-03T14:26:10.614Z,4.78
2018-08-03T14:28:38.711Z,5.17
2018-08-03T14:31:06.806Z,6.10
2018-08-03T14:33:34.852Z,4.40
2018-08-03T14:36:03.022Z,8.18
2018-08-03T14:38:31.064Z,5.10
2018-08-03T14:40:59.123Z,3.25
2018-08-03T14:43:27.562Z,4.60
2018-08-03T14:45:55.637Z,5.22
2018-08-03T14:48:23.769Z,4.35
2018-08-03T14:50:51.863Z,5.17
2018-08-03T14:53:19.995Z,3.05
2018-08-03T14:55:48.420Z,3.67
2018-08-03T14:58:16.524Z,5.85
2018-08-03T15:00:44.614Z,5.80
2018-08-03T15:03:12.674Z,5.25
2018-08-03T15:05:40.737Z,7.47
2018-08-03T15:08:08.843Z,4.58
2018-08-03T15:10:36.965Z,2.75
2018-08-03T15:13:05.259Z,2.40
2018-08-03T15:15:33.359Z,2.25
2018-08-03T15:18:01.424Z,5.00
2018-08-03T15:20:29.562Z,2.60
2018-08-03T15:22:57.645Z,6.35
2018-08-03T15:25:25.718Z,3.83
2018-08-03T15:27:53.791Z,5.28
2018-08-03T15:30:21.862Z,1.55
2018-08-03T15:32:49.920Z,3.70
2018-08-03T15:35:18.085Z,1.15
2018-08-03T15:37:46.878Z,4.22
2018-08-03T15:40:14.975Z,3.62
2018-08-03T15:42:43.053Z,2.60
2018-08-03T15:45:11.127Z,5.03
2018-08-03T15:47:39.197Z,3.08
2018-08-03T15:50:07.278Z,1.77
2018-08-03T15:52:35.714Z,2.45
2018-08-03T15:55:03.809Z,1.85
2018-08-03T15:57:31.928Z,1.55
2018-08-03T15:59:59.991Z,1.37
2018-08-03T16:02:28.068Z,1.40
2018-08-03T16:04:56.482Z,2.77
2018-08-03T16:07:24.542Z,2.15
2018-08-03T16:09:52.590Z,1.50
2018-08-03T16:12:20.766Z,2.77
2018-08-03T16:14:48.834Z,1.42
2018-08-03T16:17:16.943Z,1.40
2018-08-03T16:19:45.213Z,2.22
2018-08-03T16:22:13.278Z,1.30
2018-08-03T16:24:41.400Z,2.60
2018-08-03T16:27:09.520Z,1.35
2018-08-03T16:29:37.575Z,4.33
2018-08-03T16:32:06.004Z,1.37
2018-08-03T16:34:34.076Z,1.20
2018-08-03T16:37:02.142Z,2.35
2018-08-03T16:39:30.219Z,1.27
2018-08-03T16:41:58.359Z,1.50
2018-08-03T16:44:26.478Z,1.30
2018-08-03T16:46:54.583Z,1.70
2018-08-03T16:49:22.666Z,2.47
2018-08-03T16:51:50.742Z,1.22
2018-08-03T16:54:19.171Z,2.65
2018-08-03T16:56:47.246Z,2.15
2018-08-03T16:59:15.318Z,1.40
2018-08-03T17:01:43.379Z,3.92
2018-08-03T17:04:11.477Z,1.57
2018-08-03T17:06:39.836Z,1.20
2018-08-03T17:09:08.934Z,2.12
2018-08-03T17:11:37.218Z,2.02
2018-08-03T17:14:05.335Z,1.40
2018-08-03T17:16:33.554Z,3.80
2018-08-03T17:19:01.625Z,1.67
2018-08-03T17:21:29.699Z,1.25
2018-08-03T17:23:57.975Z,1.77
2018-08-03T17:26:26.059Z,1.97
2018-08-03T17:28:54.130Z,1.50
2018-08-03T17:31:22.583Z,1.30
2018-08-03T17:33:50.683Z,2.42
2018-08-03T17:36:18.767Z,1.67
2018-08-03T17:38:46.827Z,2.20
2018-08-03T17:41:14.972Z,1.85
2018-08-03T17:43:43.050Z,1.65
2018-08-03T17:46:11.140Z,1.65
2018-08-03T17:48:39.210Z,1.40
2018-08-03T17:51:07.290Z,1.20
2018-08-03T17:53:35.358Z,3.27
2018-08-03T17:56:03.507Z,1.40
2018-08-03T17:58:31.546Z,1.12
2018-08-03T18:00:59.628Z,2.67
2018-08-03T18:03:27.712Z,4.05
2018-08-03T18:05:55.801Z,1.40
2018-08-03T18:08:24.180Z,1.72
2018-08-03T18:10:52.322Z,4.42
2018-08-03T18:13:20.515Z,2.17
2018-08-03T18:15:48.595Z,1.42
2018-08-03T18:18:16.653Z,2.42
2018-08-03T18:20:45.042Z,1.82
2018-08-03T18:23:13.108Z,1.95
2018-08-03T18:25:41.199Z,5.47
2018-08-03T18:28:09.719Z,2.55
2018-08-03T18:30:37.751Z,1.47
2018-08-03T18:33:06.234Z,11.68
2018-08-03T18:35:34.343Z,1.77
2018-08-03T18:38:02.595Z,1.62
2018-08-03T18:40:30.738Z,2.98
2018-08-03T18:42:58.759Z,4.05
2018-08-03T18:45:26.950Z,3.33
2018-08-03T18:47:55.024Z,3.87
2018-08-03T18:50:23.157Z,3.70
2018-08-03T18:52:51.242Z,2.50
2018-08-03T18:55:19.947Z,1.98
2018-08-03T18:57:48.379Z,2.05
2018-08-03T19:00:16.483Z,5.58
2018-08-03T19:02:44.554Z,7.28
2018-08-03T19:05:12.779Z,1.90
2018-08-03T19:07:40.908Z,3.08
2018-08-03T19:10:08.917Z,2.80
2018-08-03T19:12:36.938Z,3.25
2018-08-03T19:15:05.959Z,2.85
2018-08-03T19:17:34.073Z,2.70
2018-08-03T19:20:02.314Z,4.05
2018-08-03T19:22:30.818Z,2.17
2018-08-03T19:24:58.954Z,4.83
2018-08-03T19:27:27.171Z,1.87
2018-08-03T19:29:55.243Z,1.90
2018-08-03T19:32:23.410Z,1.70
2018-08-03T19:34:51.803Z,3.25
2018-08-03T19:37:19.898Z,2.90
2018-08-03T19:39:48.007Z,4.22
2018-08-03T19:42:16.079Z,2.62
2018-08-03T19:44:44.022Z,2.60
2018-08-03T19:47:12.653Z,4.58
2018-08-03T19:49:40.677Z,4.58
2018-08-03T19:52:08.746Z,2.47
2018-08-03T19:54:36.802Z,4.00
2018-08-03T19:57:04.926Z,1.87
2018-08-03T19:59:33.014Z,3.37
2018-08-03T20:02:01.090Z,3.05
2018-08-03T20:04:29.187Z,1.77
2018-08-03T20:06:57.250Z,2.70
2018-08-03T20:09:25.334Z,2.13
2018-08-03T20:11:53.699Z,4.35
2018-08-03T20:14:21.811Z,3.15
2018-08-03T20:16:49.906Z,3.98
2018-08-03T20:19:17.991Z,4.45
2018-08-03T20:21:46.078Z,3.22
2018-08-03T20:24:14.478Z,7.65
2018-08-03T20:26:42.582Z,2.35
2018-08-03T20:29:10.680Z,1.95
2018-08-03T20:31:38.786Z,1.70
2018-08-03T20:34:06.901Z,7.28
2018-08-03T20:36:35.025Z,1.87
2018-08-03T20:39:03.419Z,5.12
2018-08-03T20:41:31.477Z,3.50
2018-08-03T20:43:59.546Z,3.42
2018-08-03T20:46:27.618Z,5.47
2018-08-03T20:48:55.702Z,3.58
2018-08-03T20:51:23.790Z,2.27
2018-08-03T20:53:51.866Z,17.55
2018-08-03T20:56:20.138Z,5.15
2018-08-03T20:58:48.190Z,3.02
2018-08-03T21:01:16.576Z,4.10
2018-08-03T21:03:44.633Z,1.95
2018-08-03T21:06:12.704Z,3.27
2018-08-03T21:08:40.926Z,3.45
2018-08-03T21:11:08.998Z,2.75
2018-08-03T21:13:37.330Z,3.87
2018-08-03T21:16:05.419Z,5.95
2018-08-03T21:18:33.519Z,2.33
2018-08-03T21:21:01.643Z,2.40
2018-08-03T21:23:29.742Z,4.95
2018-08-03T21:25:57.831Z,4.87
2018-08-03T21:28:25.902Z,4.42
2018-08-03T21:30:54.127Z,3.92
2018-08-03T21:33:22.277Z,3.75
2018-08-03T21:35:50.355Z,4.37
2018-08-03T21:38:18.465Z,4.00
2018-08-03T21:40:46.545Z,5.08
2018-08-03T21:43:14.609Z,3.25
2018-08-03T21:45:42.807Z,3.33
2018-08-03T21:48:10.962Z,2.35
2018-08-03T21:50:39.041Z,2.95
2018-08-03T21:53:07.126Z,2.45
2018-08-03T21:55:35.291Z,2.92
2018-08-03T21:58:03.392Z,2.85
2018-08-03T22:00:31.442Z,2.52
2018-08-03T22:02:59.505Z,3.00
2018-08-03T22:05:27.665Z,3.73
2018-08-03T22:07:56.050Z,3.20
2018-08-03T22:10:24.141Z,2.20
2018-08-03T22:12:52.198Z,3.25
2018-08-03T22:15:20.270Z,2.15
2018-08-03T22:17:48.362Z,2.15
2018-08-03T22:20:16.911Z,4.55
2018-08-03T22:22:44.983Z,5.12
2018-08-03T22:25:13.155Z,2.95
2018-08-03T22:27:41.202Z,2.58
2018-08-03T22:30:09.275Z,5.53
2018-08-03T22:32:37.744Z,2.15
2018-08-03T22:35:06.032Z,3.35
2018-08-03T22:37:34.171Z,3.98
2018-08-03T22:40:02.252Z,2.60
2018-08-03T22:42:30.321Z,2.22
2018-08-03T22:44:58.406Z,2.30
2018-08-03T22:47:26.493Z,2.45
2018-08-03T22:49:54.642Z,2.65
2018-08-03T22:52:22.927Z,2.17
2018-08-03T22:54:51.177Z,2.05
2018-08-03T22:57:19.321Z,1.98
2018-08-03T22:59:47.373Z,2.98
2018-08-03T23:02:15.442Z,2.27
2018-08-03T23:04:43.540Z,3.65
2018-08-03T23:07:11.603Z,3.10
2018-08-03T23:09:39.697Z,2.20
2018-08-03T23:12:08.065Z,3.90
2018-08-03T23:14:36.197Z,1.87
2018-08-03T23:17:04.404Z,3.10
2018-08-03T23:19:32.482Z,3.50
2018-08-03T23:22:00.550Z,3.75
2018-08-03T23:24:28.621Z,4.17
2018-08-03T23:26:57.006Z,2.37
2018-08-03T23:29:25.078Z,2.45
2018-08-03T23:31:53.147Z,2.33
2018-08-03T23:34:21.534Z,3.50
2018-08-03T23:36:49.634Z,5.75
2018-08-03T23:39:17.707Z,3.67
2018-08-03T23:41:45.765Z,3.00
2018-08-03T23:44:13.892Z,3.30
2018-08-03T23:46:41.983Z,2.72
2018-08-03T23:49:10.036Z,3.77
2018-08-03T23:51:38.107Z,3.20
2018-08-03T23:54:06.251Z,3.02
2018-08-03T23:56:34.338Z,3.65
2018-08-03T23:59:02.413Z,5.10
